Terminal Aerodrome Forecast
Issued by NWS Missoula, MT

Home | Current Version | Previous Version | Text Only | Print | Product List | Glossary On
Versions: 1 2 3 4 5 6 7 8 9 10 11 12 13 14 15 16 17 18 19 20 21 22
113
FTUS45 KMSO 031725
TAFGPI
TAF
KGPI 031725Z 0318/0418 21007KT P6SM SCT040 OVC060
     FM040600 19006KT P6SM -SN OVC030
     FM040900 18007KT 4SM -SN BR BKN020 OVC030
     FM041100 18005KT 3SM -SN BR BKN010 OVC020=

USA.gov is the U.S. government's official web portal to all federal, state and local government web resources and services.